createdAt,value
2022-11-16T00:00:06.227Z,87.02
2022-11-16T00:05:17.147Z,88.65
2022-11-16T00:06:17.351Z,88.70
2022-11-16T00:09:01.931Z,88.65
2022-11-16T00:10:02.232Z,88.24
2022-11-16T00:11:03.077Z,88.14
2022-11-16T00:12:02.032Z,87.84
2022-11-16T00:13:02.893Z,87.53
2022-11-16T00:14:01.899Z,87.53
2022-11-16T00:15:01.923Z,87.63
2022-11-16T00:16:01.881Z,87.53
2022-11-16T00:17:01.831Z,87.32
2022-11-16T00:19:41.478Z,87.73
2022-11-16T00:20:50.249Z,89.21
2022-11-16T00:21:50.354Z,89.31
2022-11-16T00:28:29.691Z,92.06
2022-11-16T00:29:44.295Z,92.36
2022-11-16T00:30:40.836Z,93.13
2022-11-16T00:36:20.096Z,92.51
2022-11-16T00:37:28.276Z,92.57
2022-11-16T00:39:47.038Z,93.23
2022-11-16T00:42:14.981Z,92.82
2022-11-16T00:43:24.594Z,92.82
2022-11-16T00:44:23.924Z,92.47
2022-11-16T00:51:13.767Z,91.50
2022-11-16T00:58:34.689Z,90.69
2022-11-16T00:59:43.087Z,91.61
2022-11-16T01:02:03.668Z,91.20
2022-11-16T01:06:36.756Z,91.61
2022-11-16T01:12:19.609Z,91.40
2022-11-16T01:14:58.313Z,91.65
2022-11-16T01:16:09.277Z,92.06
2022-11-16T01:17:15.077Z,92.47
2022-11-16T01:18:09.312Z,92.27
2022-11-16T01:19:09.448Z,92.36
2022-11-16T01:20:01.521Z,92.88
2022-11-16T01:23:08.217Z,93.44
2022-11-16T01:25:52.142Z,93.44
2022-11-16T01:26:56.109Z,93.33
2022-11-16T01:27:53.351Z,92.98
2022-11-16T01:29:03.571Z,92.88
2022-11-16T01:29:53.333Z,92.82
2022-11-16T01:30:52.005Z,93.02
2022-11-16T01:33:13.999Z,93.70
2022-11-16T01:34:24.317Z,93.29
2022-11-16T01:35:15.119Z,93.39
2022-11-16T01:37:48.502Z,93.08
2022-11-16T01:39:01.326Z,92.68
2022-11-16T01:41:17.123Z,92.88
2022-11-16T01:42:28.049Z,92.27
2022-11-16T01:43:24.629Z,92.27
2022-11-16T01:44:30.377Z,92.36
2022-11-16T01:45:50.201Z,92.27
2022-11-16T01:47:07.671Z,92.22
2022-11-16T01:48:31.665Z,92.12
2022-11-16T01:50:23.033Z,92.22
2022-11-16T01:50:27.992Z,92.27
2022-11-16T01:52:01.700Z,92.32
2022-11-16T01:53:16.280Z,92.36
2022-11-16T01:55:16.996Z,92.98
2022-11-16T01:55:33.355Z,93.04
2022-11-16T01:56:58.027Z,92.22
2022-11-16T01:57:55.726Z,92.43
2022-11-16T01:58:47.885Z,92.32
2022-11-16T01:59:27.170Z,92.43
2022-11-16T02:00:33.173Z,92.53
2022-11-16T02:01:52.305Z,92.22
2022-11-16T02:04:24.110Z,91.67
2022-11-16T02:05:26.662Z,91.30
2022-11-16T02:06:23.992Z,91.30
2022-11-16T02:08:52.323Z,92.02
2022-11-16T02:09:52.795Z,92.38
2022-11-16T02:10:52.702Z,92.22
2022-11-16T02:11:54.320Z,92.69
2022-11-16T02:12:54.294Z,92.43
2022-11-16T02:13:53.886Z,92.63
2022-11-16T02:14:53.738Z,92.53
2022-11-16T02:15:54.175Z,92.63
2022-11-16T02:16:53.464Z,92.22
2022-11-16T02:17:54.112Z,92.22
2022-11-16T02:18:53.803Z,93.35
2022-11-16T02:19:53.931Z,92.53
2022-11-16T02:20:53.216Z,92.53
2022-11-16T02:21:53.465Z,92.22
2022-11-16T02:22:53.232Z,92.43
2022-11-16T02:23:53.291Z,92.63
2022-11-16T02:24:53.337Z,92.43
2022-11-16T02:25:53.671Z,92.22
2022-11-16T02:26:53.270Z,92.32
2022-11-16T02:27:53.029Z,92.18
2022-11-16T02:28:53.224Z,92.22
2022-11-16T02:29:52.960Z,92.38
2022-11-16T02:30:53.142Z,92.53
2022-11-16T02:31:53.165Z,92.49
2022-11-16T02:44:57.034Z,92.68
2022-11-16T02:45:57.302Z,93.02
2022-11-16T02:46:57.161Z,93.44
2022-11-16T02:47:56.937Z,93.44
2022-11-16T02:48:56.792Z,93.39
2022-11-16T02:49:56.810Z,93.19
2022-11-16T02:50:56.767Z,93.39
2022-11-16T02:51:58.262Z,93.49
2022-11-16T02:52:58.001Z,93.19
2022-11-16T02:53:57.998Z,93.08
2022-11-16T02:54:58.035Z,93.08
2022-11-16T02:55:58.058Z,93.15
2022-11-16T02:56:57.949Z,92.78
2022-11-16T02:57:58.041Z,93.04
2022-11-16T02:58:58.112Z,92.74
2022-11-16T02:59:58.008Z,92.74
2022-11-16T03:00:58.064Z,92.53
2022-11-16T03:01:57.983Z,92.74
2022-11-16T03:02:57.833Z,92.83
2022-11-16T03:03:57.941Z,92.22
2022-11-16T03:04:57.875Z,92.22
2022-11-16T03:05:57.982Z,92.22
2022-11-16T03:06:57.973Z,92.22
2022-11-16T03:07:57.907Z,92.16
2022-11-16T03:08:57.897Z,92.27
2022-11-16T03:09:57.964Z,92.36
2022-11-16T03:10:57.936Z,92.27
2022-11-16T03:11:57.838Z,92.88
2022-11-16T03:12:57.865Z,93.19
2022-11-16T03:13:57.833Z,93.15
2022-11-16T03:14:57.845Z,92.74
2022-11-16T03:15:57.699Z,92.78
2022-11-16T03:16:57.748Z,92.74
2022-11-16T03:17:57.838Z,92.94
2022-11-16T03:18:57.836Z,93.04
2022-11-16T03:19:57.872Z,92.94
2022-11-16T03:20:57.839Z,93.15
2022-11-16T03:21:57.715Z,92.63
2022-11-16T03:22:57.763Z,92.63
2022-11-16T03:23:57.642Z,93.15
2022-11-16T03:24:57.684Z,93.15
2022-11-16T03:25:57.623Z,92.63
2022-11-16T03:26:57.698Z,93.00
2022-11-16T03:27:57.647Z,92.12
2022-11-16T03:28:57.738Z,92.53
2022-11-16T03:29:57.775Z,92.63
2022-11-16T03:30:57.587Z,92.74
2022-11-16T03:31:57.605Z,92.63
2022-11-16T03:32:57.575Z,92.63
2022-11-16T03:33:57.834Z,93.04
2022-11-16T03:34:57.608Z,92.49
2022-11-16T03:35:57.561Z,92.83
2022-11-16T03:36:57.766Z,92.83
2022-11-16T03:37:57.568Z,92.94
2022-11-16T03:38:57.491Z,92.43
2022-11-16T03:39:57.577Z,92.18
2022-11-16T03:40:57.552Z,92.43
2022-11-16T03:41:57.528Z,92.32
2022-11-16T03:42:57.482Z,92.32
2022-11-16T03:43:57.575Z,92.49
2022-11-16T03:44:57.674Z,92.12
2022-11-16T03:45:57.537Z,92.53
2022-11-16T03:46:57.521Z,92.53
2022-11-16T03:47:57.461Z,92.53
2022-11-16T03:48:57.633Z,92.32
2022-11-16T03:49:58.202Z,92.22
2022-11-16T03:50:57.344Z,92.12
2022-11-16T03:51:57.717Z,92.43
2022-11-16T03:52:57.435Z,92.43
2022-11-16T03:53:57.839Z,92.43
2022-11-16T03:54:58.338Z,92.53
2022-11-16T03:55:59.577Z,92.49
2022-11-16T03:57:05.962Z,92.43
2022-11-16T03:58:00.429Z,92.12
2022-11-16T03:58:57.781Z,92.22
2022-11-16T03:59:58.362Z,92.22
2022-11-16T04:00:58.417Z,92.12
2022-11-16T04:01:58.835Z,92.32
2022-11-16T04:02:59.357Z,92.22
2022-11-16T04:04:15.089Z,92.22
2022-11-16T04:05:02.828Z,92.02
2022-11-16T04:05:59.724Z,92.22
2022-11-16T04:07:01.260Z,92.22
2022-11-16T04:07:57.808Z,92.43
2022-11-16T04:09:00.427Z,92.22
2022-11-16T04:16:30.706Z,92.22
2022-11-16T04:17:30.729Z,92.16
2022-11-16T04:18:30.863Z,92.63
2022-11-16T04:19:31.155Z,92.83
2022-11-16T04:20:30.860Z,92.74
2022-11-16T04:21:31.646Z,92.43
2022-11-16T04:22:35.837Z,92.83
2022-11-16T04:23:34.823Z,92.83
2022-11-16T04:24:33.221Z,93.04
2022-11-16T04:26:15.751Z,92.74
2022-11-16T04:26:35.913Z,92.63
2022-11-16T04:27:33.158Z,93.04
2022-11-16T04:41:38.795Z,92.94
2022-11-16T04:54:44.843Z,93.04
2022-11-16T05:01:12.335Z,93.66
2022-11-16T05:02:17.346Z,93.45
2022-11-16T05:30:20.623Z,93.30
2022-11-16T05:37:59.563Z,92.79
2022-11-16T06:15:06.296Z,93.66
2022-11-16T06:18:19.229Z,93.71
2022-11-16T06:19:21.188Z,93.86
2022-11-16T06:20:29.842Z,93.55
2022-11-16T06:22:47.250Z,93.76
2022-11-16T06:24:07.610Z,93.62
2022-11-16T06:28:05.271Z,93.71
2022-11-16T06:29:11.169Z,93.30
2022-11-16T06:32:28.785Z,93.66
2022-11-16T06:33:49.598Z,93.71
2022-11-16T06:34:43.744Z,93.00
2022-11-16T06:35:13.578Z,93.15
2022-11-16T06:36:54.142Z,93.20
2022-11-16T07:00:49.338Z,93.76
2022-11-16T07:01:58.072Z,93.96
2022-11-16T07:14:50.389Z,94.78
2022-11-16T07:29:54.388Z,94.89
2022-11-16T07:32:51.333Z,94.58
2022-11-16T07:32:55.716Z,94.78
2022-11-16T07:37:58.399Z,94.68
2022-11-16T07:39:02.507Z,94.54
2022-11-16T07:40:00.020Z,94.58
2022-11-16T07:41:00.599Z,94.07
2022-11-16T07:44:42.740Z,94.02
2022-11-16T07:47:34.215Z,93.86
2022-11-16T07:51:50.376Z,94.37
2022-11-16T07:52:51.258Z,94.58
2022-11-16T07:57:02.825Z,94.74
2022-11-16T08:04:07.272Z,94.68
2022-11-16T08:10:56.046Z,94.54
2022-11-16T08:16:33.625Z,94.37
2022-11-16T08:28:17.529Z,95.29
2022-11-16T08:31:34.657Z,95.70
2022-11-16T08:37:05.545Z,96.01
2022-11-16T08:38:05.584Z,95.70
2022-11-16T08:43:33.967Z,95.76
2022-11-16T08:44:34.282Z,95.46
2022-11-16T08:45:34.877Z,95.50
2022-11-16T08:46:36.687Z,95.56
2022-11-16T08:47:35.726Z,95.15
2022-11-16T08:48:40.361Z,95.56
2022-11-16T08:49:45.250Z,95.25
2022-11-16T08:51:16.034Z,95.46
2022-11-16T08:51:52.457Z,95.05
2022-11-16T09:03:03.792Z,94.80
2022-11-16T09:05:51.835Z,95.00
2022-11-16T09:07:00.990Z,94.59
2022-11-16T09:08:01.694Z,94.59
2022-11-16T09:08:52.003Z,94.90
2022-11-16T09:09:52.090Z,94.80
2022-11-16T09:13:30.399Z,94.70
2022-11-16T09:16:11.222Z,94.90
2022-11-16T09:17:13.001Z,95.21
2022-11-16T09:18:14.212Z,95.51
2022-11-16T09:19:11.490Z,95.57
2022-11-16T09:20:17.455Z,95.47
2022-11-16T09:21:22.010Z,95.78
2022-11-16T09:22:16.949Z,95.26
2022-11-16T09:23:22.285Z,95.26
2022-11-16T09:26:33.811Z,95.22
2022-11-16T09:26:50.756Z,94.60
2022-11-16T09:33:16.949Z,94.46
2022-11-16T09:35:05.681Z,94.56
2022-11-16T09:35:27.565Z,94.67
2022-11-16T09:36:23.856Z,94.46
2022-11-16T09:41:40.470Z,93.25
2022-11-16T10:04:43.472Z,94.32
2022-11-16T10:25:09.436Z,95.50
2022-11-16T10:39:21.966Z,94.48
2022-11-16T10:51:42.644Z,95.35
2022-11-16T10:59:13.904Z,93.48
2022-11-16T11:02:06.685Z,93.22
2022-11-16T11:13:28.861Z,92.29
2022-11-16T11:14:28.717Z,93.00
2022-11-16T11:15:36.454Z,93.00
2022-11-16T11:16:28.840Z,93.10
2022-11-16T11:17:28.918Z,92.90
2022-11-16T11:18:28.783Z,92.45
2022-11-16T11:19:28.893Z,92.08
2022-11-16T11:20:28.589Z,91.06
2022-11-16T11:21:29.996Z,91.53
2022-11-16T11:22:29.857Z,91.12
2022-11-16T11:23:29.800Z,91.94
2022-11-16T11:24:43.987Z,92.61
2022-11-16T11:25:36.955Z,92.01
2022-11-16T11:26:35.890Z,88.12
2022-11-16T11:27:32.450Z,87.96
2022-11-16T11:30:38.663Z,82.37
2022-11-16T11:31:39.003Z,80.10
2022-11-16T11:32:38.358Z,79.18
2022-11-16T11:33:38.430Z,79.42
2022-11-16T11:34:47.571Z,77.83
2022-11-16T11:35:38.410Z,78.40
2022-11-16T11:36:38.482Z,76.74
2022-11-16T11:37:38.269Z,74.84
2022-11-16T11:39:14.071Z,74.68
2022-11-16T11:39:40.093Z,75.05
2022-11-16T11:41:12.076Z,77.12
2022-11-16T11:42:15.836Z,77.14
2022-11-16T11:42:39.929Z,76.64
2022-11-16T11:43:39.563Z,74.61
2022-11-16T11:44:39.373Z,75.93
2022-11-16T11:45:40.387Z,76.84
2022-11-16T11:47:28.594Z,77.05
2022-11-16T11:47:57.400Z,76.81
2022-11-16T11:49:09.084Z,77.80
2022-11-16T11:49:40.276Z,78.64
2022-11-16T11:50:39.800Z,77.52
2022-11-16T11:51:39.492Z,76.98
2022-11-16T11:52:39.319Z,76.71
2022-11-16T11:53:39.264Z,78.20
2022-11-16T11:54:44.662Z,79.05
2022-11-16T11:58:24.683Z,81.44
2022-11-16T12:34:25.287Z,79.75
2022-11-16T12:35:35.427Z,79.52
2022-11-16T12:43:01.183Z,78.94
2022-11-16T12:44:06.837Z,78.77
2022-11-16T12:47:48.564Z,79.59
2022-11-16T12:51:07.692Z,77.89
2022-11-16T12:58:12.853Z,77.03
2022-11-16T12:59:12.935Z,77.03
2022-11-16T13:02:40.317Z,77.51
2022-11-16T13:05:33.560Z,77.55
2022-11-16T13:09:13.740Z,79.08
2022-11-16T13:10:14.025Z,78.61
2022-11-16T13:15:53.099Z,79.12
2022-11-16T13:21:29.279Z,79.73
2022-11-16T13:25:31.892Z,78.47
2022-11-16T13:26:40.003Z,79.18
2022-11-16T13:27:43.543Z,79.08
2022-11-16T13:54:32.692Z,83.22
2022-11-16T13:57:11.081Z,83.32
2022-11-16T14:04:45.725Z,82.70
